メインページ
METAR-TAF:

METAR-TAF

空港 :

Saint-Hubert, ケベック州, カナダ

緯度: 45-31N, 経度: 073-25W, 海抜: 27m

現時点の気象観測

当レポートは39分前の06:00(UTC)に作成
北/北東の風 8kt
気温 4°C
湿度 81%
気圧 1017 hPa
視程: 14.5km
高度6500ftの曇り

METAR: CYHU 040600Z AUTO 03008KT 9SM OVC065 04/01 A3003 RMK SLP171

時間: 02:39 (06:39 UTC)

予報

当レポートは1時間1分前の05:38(UTC)に作成
予報は04日の 06時(UTC)から 05日の 06時(UTC)まで有効
北東の風 10kt
視程: 10km
高度2000ftの雲は散在している
高度6000ftの千切れ雲あり
04日の 06時(UTC)から 04日の 14時(UTC)まで一時的に
高度2000ftの千切れ雲あり
高度6000ftの千切れ雲あり
確率 30%
04日の 09時(UTC)から 04日の 13時(UTC)まで
高度800ftの千切れ雲あり
高度1500ftの曇り
04日の 1400時(UTC)から
北/北東の風 8kt
視程: 10km
高度1500ftの千切れ雲あり
高度2500ftの曇り
04日の 14時(UTC)から 04日の 23時(UTC)まで一時的に
高度1500ftの雲はほとんどない
高度2500ftの千切れ雲あり
04日の 2300時(UTC)から
北/北東の風 5kt
視程: 10km
高度2000ftの雲はほとんどない
05日の 0400時(UTC)から
変向風 3kt
視程: 10km
高度2000ftの雲はほとんどない
高度9000ftの千切れ雲あり

TAF: CYHU 040538Z 0406/0506 04010KT P6SM SCT020 BKN060 TEMPO 0406/0414 BKN020 BKN060 PROB30 0409/0413 BKN008 OVC015 FM041400 02008KT P6SM BKN015 OVC025 TEMPO 0414/0423 FEW015 BKN025 FM042300 03005KT P6SM FEW020 FM050400 VRB03KT P6SM FEW020 BKN090 RMK FCST BASED ON AUTO OBS. NXT FCST BY 041200Z

4,000以上の空港の気象観測と天気予報(METAR報とTAF報)

利用可能な観測所は地図上に黄色い丸と赤い丸で示す。

丸の上にカーソルを重ねると観測所名を参照できる。

次にクリックすると気象観測と天気予報を参照できる。

マップの切り替え:黒色「×」印の緑ボタンをクリックして拡大、「-」印の緑ボタンをクリックして縮小、緑色の三角印をクリックして隣りの地図に切り替え


METAR-TAF: